This is the latest recevied weather packets stored in our database for station/object OZ7MKS. If no packets are shown the sender has not sent any weather packets the latest 10 day(s).
| Time | Temp. | Humidity | Pressure | Rain* | Wind** | Luminosity | Snow |
|---|---|---|---|---|---|---|---|
| 1777952704 | 6.11° C | 95% | 1012.1 hPa | 0 mm | - | - | - |
| 1777950903 | 7.22° C | 95% | 1012.2 hPa | 0 mm | - | - | - |
| 1777949404 | 6.67° C | 96% | 1012.1 hPa | 0 mm | - | - | - |
| 1777947904 | 6.67° C | 95% | 1012.2 hPa | 0 mm | - | - | - |
| 1777947604 | 6.11° C | 95% | 1012.3 hPa | 0 mm | - | - | - |
| 1777945804 | 6.11° C | 95% | 1012.4 hPa | 0 mm | - | - | - |
| 1777943704 | 5.56° C | 95% | 1012.4 hPa | 0 mm | - | - | - |
| 1777942204 | 5.56° C | 95% | 1012.5 hPa | 0 mm | - | - | - |
| 1777941603 | 6.11° C | 94% | 1012.6 hPa | 0 mm | - | - | - |
| 1777940404 | 6.11° C | 94% | 1012.7 hPa | 0 mm | - | - | - |
| 1777939504 | 6.11° C | 94% | 1012.7 hPa | 0 mm | - | - | - |
| 1777937704 | 6.11° C | 95% | 1012.8 hPa | 0 mm | - | - | - |
| 1777937104 | 6.11° C | 95% | 1012.8 hPa | 0 mm | - | - | - |
| 1777933504 | 6.11° C | 94% | 1012.9 hPa | 0 mm | - | - | - |
| 1777929604 | 6.67° C | 92% | 1013 hPa | 0 mm | - | - | - |
| 1777929004 | 6.67° C | 92% | 1013 hPa | 0 mm | - | - | - |
| 1777923605 | 7.78° C | 90% | 1013.1 hPa | 0 mm | - | - | - |
| 1777920903 | 8.33° C | 87% | 1012.8 hPa | 0 mm | - | - | - |
| 1777920304 | 8.33° C | 86% | 1012.8 hPa | 0 mm | - | - | - |
| 1777918804 | 8.89° C | 84% | 1012.8 hPa | 0 mm | - | - | - |
| 1777911604 | 10° C | 82% | 1012.7 hPa | 0 mm | - | - | - |
| 1777908604 | 10° C | 83% | 1012.7 hPa | 0 mm | - | - | - |
| 1777906204 | 10.56° C | 81% | 1012.9 hPa | 0 mm | - | - | - |
| 1777905604 | 10.56° C | 82% | 1012.8 hPa | 0 mm | - | - | - |
| 1777898704 | 12.22° C | 77% | 1012.5 hPa | 0 mm | - | - | - |
* Rain latest hour (hover to see other rain measurements)
** Current wind speed in m/s (hover to see current wind gust speed)